Time;durP1;ratioP1;P1;durP2;ratioP2;P2;SDS_P1;SDS_P2;PMS_P1;PMS_P2;Temp;Humidity;BMP_temperature;BMP_pressure;BME280_temperature;BME280_humidity;BME280_pressure;Samples;Min_cycle;Max_cycle;Signal;HPM_P1;HPM_P2
2021/07/17 00:02:17;;;;;;;38.33;11.65;;;16.30;95.10;;;;;;5006671;28;20038;-54
2021/07/17 00:04:44;;;;;;;46.55;11.23;;;16.30;95.20;;;;;;5003765;28;20053;-55
2021/07/17 00:07:10;;;;;;;35.63;11.10;;;16.30;95.20;;;;;;5011265;28;20106;-54
2021/07/17 00:09:36;;;;;;;30.30;10.88;;;16.20;95.30;;;;;;5010966;28;20049;-54
2021/07/17 00:12:03;;;;;;;39.45;10.75;;;16.20;95.30;;;;;;5011784;28;20037;-54
2021/07/17 00:14:29;;;;;;;38.30;11.80;;;16.10;95.40;;;;;;5011458;28;20057;-55
2021/07/17 00:16:55;;;;;;;34.45;11.40;;;16.10;95.40;;;;;;5010349;28;20045;-54
2021/07/17 00:19:21;;;;;;;32.63;11.02;;;16.00;95.50;;;;;;4994450;28;20050;-54
2021/07/17 00:21:47;;;;;;;33.85;11.27;;;16.00;95.50;;;;;;5010817;28;20048;-54
2021/07/17 00:24:13;;;;;;;35.83;10.98;;;16.00;95.60;;;;;;5010277;28;20040;-55
2021/07/17 00:26:39;;;;;;;29.88;11.23;;;15.90;95.60;;;;;;5010651;28;20454;-55
2021/07/17 00:29:05;;;;;;;37.75;11.50;;;15.90;95.70;;;;;;5016882;28;20034;-55
2021/07/17 00:31:30;;;;;;;30.95;11.00;;;15.90;95.70;;;;;;5011380;28;20050;-55
2021/07/17 00:33:57;;;;;;;33.72;12.13;;;15.90;95.90;;;;;;5011739;28;20053;-55
2021/07/17 00:36:23;;;;;;;35.38;10.85;;;15.80;95.70;;;;;;5011073;28;20049;-55
2021/07/17 00:38:49;;;;;;;42.13;11.30;;;15.80;95.80;;;;;;5009861;28;20052;-54
2021/07/17 00:41:15;;;;;;;34.25;11.10;;;15.80;95.80;;;;;;4976617;28;20507;-54
2021/07/17 00:43:41;;;;;;;31.45;11.07;;;15.80;95.90;;;;;;5010886;28;20081;-55
2021/07/17 00:46:07;;;;;;;30.77;10.98;;;15.70;95.90;;;;;;4998880;28;20109;-55
2021/07/17 00:48:34;;;;;;;29.45;10.65;;;15.70;95.90;;;;;;4993220;28;20038;-55
2021/07/17 00:50:59;;;;;;;37.28;11.27;;;15.70;95.90;;;;;;5008120;28;20045;-55
2021/07/17 00:53:25;;;;;;;33.88;11.65;;;15.70;96.00;;;;;;4998208;28;20034;-55
2021/07/17 00:55:52;;;;;;;35.38;11.05;;;15.60;95.90;;;;;;5002008;28;20136;-54
2021/07/17 00:58:25;;;;;;;33.00;10.35;;;15.60;96.00;;;;;;4993092;28;20057;-54
2021/07/17 01:00:51;;;;;;;35.67;11.18;;;15.60;96.00;;;;;;5002661;28;20482;-54
2021/07/17 01:03:19;;;;;;;32.00;10.57;;;15.60;96.10;;;;;;5010774;28;20038;-55
2021/07/17 01:05:48;;;;;;;34.17;10.95;;;15.60;96.10;;;;;;5010731;28;20052;-55
2021/07/17 01:08:14;;;;;;;28.98;10.50;;;15.60;96.20;;;;;;5003770;28;20543;-55
2021/07/17 01:10:40;;;;;;;28.75;11.32;;;15.50;96.10;;;;;;4996934;28;20030;-53
2021/07/17 01:13:06;;;;;;;37.47;11.95;;;15.50;96.20;;;;;;5010208;28;20049;-54
2021/07/17 01:15:32;;;;;;;34.58;10.90;;;15.50;96.20;;;;;;5005912;28;20046;-54
2021/07/17 01:17:58;;;;;;;30.88;10.98;;;15.50;96.20;;;;;;5005104;28;20038;-53
2021/07/17 01:20:25;;;;;;;36.53;10.77;;;15.40;96.10;;;;;;4976777;28;20050;-54
2021/07/17 01:22:51;;;;;;;34.88;11.32;;;15.40;96.20;;;;;;5011236;28;20180;-54
2021/07/17 01:25:21;;;;;;;38.03;11.63;;;15.40;96.20;;;;;;5010002;28;20038;-53
2021/07/17 01:27:49;;;;;;;32.42;11.05;;;15.30;96.20;;;;;;5010902;28;20042;-55
2021/07/17 01:30:19;;;;;;;31.90;10.45;;;15.30;96.10;;;;;;5010816;28;20487;-52
2021/07/17 01:32:52;;;;;;;33.15;11.05;;;15.30;96.20;;;;;;5011155;28;20096;-55
2021/07/17 01:35:18;;;;;;;30.25;10.52;;;15.20;96.20;;;;;;5007670;28;20046;-54
2021/07/17 01:37:44;;;;;;;31.95;9.90;;;15.20;96.20;;;;;;4999287;28;20108;-55
2021/07/17 01:40:18;;;;;;;31.60;10.90;;;15.20;96.20;;;;;;5007272;28;20115;-54
2021/07/17 01:42:45;;;;;;;35.35;11.30;;;15.10;96.30;;;;;;4989478;28;20061;-54
2021/07/17 01:45:11;;;;;;;29.67;10.52;;;15.10;96.40;;;;;;5008722;28;20044;-54
2021/07/17 01:47:37;;;;;;;38.75;11.10;;;15.10;96.30;;;;;;5007943;28;20038;-54
2021/07/17 01:50:05;;;;;;;34.67;10.80;;;15.10;96.40;;;;;;4993231;28;20050;-52
2021/07/17 01:52:30;;;;;;;26.52;10.40;;;15.00;96.40;;;;;;5009618;28;20709;-51
2021/07/17 01:54:56;;;;;;;25.85;10.63;;;15.00;96.40;;;;;;5016939;28;20112;-52
2021/07/17 01:57:22;;;;;;;28.05;10.68;;;15.00;96.40;;;;;;5024620;28;20038;-52
2021/07/17 01:59:49;;;;;;;28.85;10.38;;;15.00;96.40;;;;;;5012506;28;20046;-51
2021/07/17 02:02:14;;;;;;;32.63;12.00;;;14.90;96.60;;;;;;5016056;28;20034;-54
2021/07/17 02:04:40;;;;;;;32.28;10.32;;;14.90;96.40;;;;;;5017132;28;20042;-52
2021/07/17 02:07:06;;;;;;;28.45;10.38;;;14.90;96.40;;;;;;5013041;28;20045;-49
2021/07/17 02:09:33;;;;;;;22.05;9.82;;;14.90;96.40;;;;;;5012949;28;20041;-52
2021/07/17 02:12:01;;;;;;;27.33;10.70;;;14.80;96.50;;;;;;5002544;28;20391;-50
2021/07/17 02:14:32;;;;;;;31.52;9.95;;;14.80;96.50;;;;;;5013964;28;20045;-50
2021/07/17 02:16:58;;;;;;;25.13;10.07;;;14.80;96.60;;;;;;5008498;28;20038;-51
2021/07/17 02:19:23;;;;;;;37.42;10.63;;;14.80;96.60;;;;;;4990970;28;20053;-50
2021/07/17 02:21:51;;;;;;;30.63;10.48;;;14.80;96.70;;;;;;5009521;28;20065;-52
2021/07/17 02:24:18;;;;;;;27.73;10.40;;;14.80;96.70;;;;;;5013724;28;20046;-52
2021/07/17 02:26:48;;;;;;;30.85;10.45;;;14.80;96.70;;;;;;4996561;28;20065;-53
2021/07/17 02:29:14;;;;;;;23.75;9.48;;;14.80;96.70;;;;;;5012597;28;20062;-52
2021/07/17 02:31:43;;;;;;;24.13;9.52;;;14.80;96.70;;;;;;5006468;28;20049;-53
2021/07/17 02:34:10;;;;;;;28.25;9.75;;;14.80;96.70;;;;;;5010430;28;20120;-49
2021/07/17 02:36:37;;;;;;;35.35;10.25;;;14.80;96.70;;;;;;5003916;28;20084;-52
2021/07/17 02:39:05;;;;;;;27.83;10.48;;;14.80;97.00;;;;;;5013546;28;20046;-52
2021/07/17 02:41:31;;;;;;;24.33;9.43;;;14.80;96.70;;;;;;5016141;28;20108;-50
2021/07/17 02:43:57;;;;;;;27.60;9.90;;;14.80;96.80;;;;;;4992802;28;20058;-51
2021/07/17 02:46:23;;;;;;;28.27;10.55;;;14.80;96.80;;;;;;5006073;28;20073;-50
2021/07/17 02:48:49;;;;;;;40.20;11.40;;;14.70;96.90;;;;;;4995998;28;20474;-54
2021/07/17 02:51:14;;;;;;;34.47;11.23;;;14.70;96.90;;;;;;5013317;28;20042;-52
2021/07/17 02:53:40;;;;;;;29.40;10.27;;;14.70;96.90;;;;;;5013284;28;20038;-50
2021/07/17 02:56:06;;;;;;;27.20;10.70;;;14.80;97.00;;;;;;5012999;28;20050;-51
2021/07/17 02:58:31;;;;;;;24.45;10.57;;;14.80;97.00;;;;;;5018141;28;20049;-53
2021/07/17 03:00:57;;;;;;;34.45;10.43;;;14.80;97.10;;;;;;5012193;28;20034;-51
2021/07/17 03:03:24;;;;;;;28.88;10.07;;;14.80;97.10;;;;;;5010092;28;20046;-52
2021/07/17 03:05:50;;;;;;;31.40;10.48;;;14.80;97.10;;;;;;5011611;28;20045;-50
2021/07/17 03:08:21;;;;;;;27.63;11.07;;;14.80;97.10;;;;;;5013356;28;20129;-52
2021/07/17 03:10:49;;;;;;;33.60;10.80;;;14.80;97.10;;;;;;5012016;28;20034;-53
2021/07/17 03:13:15;;;;;;;25.20;10.40;;;14.80;97.10;;;;;;5011967;28;20491;-53
2021/07/17 03:15:41;;;;;;;30.42;10.93;;;14.80;97.20;;;;;;5005178;28;20058;-49
2021/07/17 03:18:08;;;;;;;31.65;11.20;;;14.80;97.10;;;;;;5020129;28;20048;-51
2021/07/17 03:20:34;;;;;;;28.77;10.23;;;14.80;97.20;;;;;;5002370;28;20050;-52
2021/07/17 03:23:03;;;;;;;30.83;10.77;;;14.80;97.30;;;;;;5007663;28;20088;-52
2021/07/17 03:25:30;;;;;;;27.33;10.70;;;14.80;97.30;;;;;;5002888;28;20041;-52
2021/07/17 03:27:56;;;;;;;29.27;10.68;;;14.80;97.30;;;;;;5011269;28;20038;-52
2021/07/17 03:30:23;;;;;;;27.92;10.50;;;14.80;97.30;;;;;;5008438;28;20080;-49
2021/07/17 03:32:49;;;;;;;24.35;9.85;;;14.80;97.30;;;;;;5024903;28;20038;-51
2021/07/17 03:35:15;;;;;;;30.88;10.70;;;14.80;97.30;;;;;;5012219;28;20149;-52
2021/07/17 03:37:41;;;;;;;26.00;11.50;;;14.80;97.30;;;;;;5011360;28;20089;-51
2021/07/17 03:40:08;;;;;;;30.33;10.40;;;14.80;97.30;;;;;;5000250;28;20491;-52
2021/07/17 03:42:34;;;;;;;26.70;9.38;;;14.80;97.30;;;;;;5011224;28;20046;-52
2021/07/17 03:45:00;;;;;;;29.45;11.13;;;14.80;97.30;;;;;;5012208;28;20033;-55
2021/07/17 03:47:25;;;;;;;29.35;9.88;;;14.80;97.30;;;;;;5009702;28;20046;-54
2021/07/17 03:49:51;;;;;;;26.23;10.25;;;14.80;97.40;;;;;;5005753;28;20038;-55
2021/07/17 03:52:19;;;;;;;22.92;9.73;;;14.80;97.40;;;;;;5007033;28;20092;-54
2021/07/17 03:54:45;;;;;;;25.70;10.55;;;14.80;97.40;;;;;;4994544;28;20100;-55
2021/07/17 03:57:11;;;;;;;23.33;9.90;;;14.80;97.40;;;;;;5011240;28;20454;-55
2021/07/17 03:59:37;;;;;;;23.50;9.68;;;14.80;97.40;;;;;;5004687;28;20456;-55
2021/07/17 04:02:04;;;;;;;25.00;9.80;;;14.80;97.50;;;;;;4991796;28;20121;-54
2021/07/17 04:04:31;;;;;;;26.80;10.32;;;14.80;97.60;;;;;;5006020;28;20568;-53
2021/07/17 04:06:59;;;;;;;37.78;13.25;;;14.90;97.70;;;;;;5010630;28;20038;-54
2021/07/17 04:09:25;;;;;;;32.63;11.15;;;14.90;97.80;;;;;;5010925;28;20093;-55
2021/07/17 04:11:51;;;;;;;36.42;10.98;;;15.00;97.80;;;;;;5007166;28;20042;-54
2021/07/17 04:14:17;;;;;;;45.35;11.25;;;15.00;97.70;;;;;;5018855;28;20073;-54
2021/07/17 04:16:43;;;;;;;31.23;10.40;;;15.00;97.80;;;;;;5004150;28;20034;-54
2021/07/17 04:19:09;;;;;;;25.75;10.23;;;15.10;97.90;;;;;;5010879;28;20042;-53
2021/07/17 04:21:35;;;;;;;29.92;9.70;;;15.00;97.90;;;;;;5007201;28;20092;-50
2021/07/17 04:24:01;;;;;;;31.95;10.50;;;15.10;97.90;;;;;;4994032;28;20125;-55
2021/07/17 04:26:27;;;;;;;27.33;9.60;;;15.10;97.90;;;;;;5006283;28;20097;-49
2021/07/17 04:28:52;;;;;;;27.52;9.82;;;15.10;97.90;;;;;;5008231;28;20113;-51
2021/07/17 04:31:18;;;;;;;24.73;9.35;;;15.20;97.90;;;;;;5008459;28;20145;-52
2021/07/17 04:33:44;;;;;;;33.95;9.90;;;15.20;97.90;;;;;;5006187;28;20406;-52
2021/07/17 04:36:10;;;;;;;25.75;9.95;;;15.20;97.90;;;;;;5010036;28;20044;-51
2021/07/17 04:38:37;;;;;;;32.38;11.27;;;15.20;97.90;;;;;;5006159;28;20057;-52
2021/07/17 04:41:03;;;;;;;23.60;9.20;;;15.20;97.90;;;;;;5010317;28;20495;-53
2021/07/17 04:43:29;;;;;;;25.60;9.45;;;15.30;98.00;;;;;;5009817;28;20048;-54
2021/07/17 04:45:54;;;;;;;28.25;9.27;;;15.30;98.00;;;;;;5010571;28;20566;-52
2021/07/17 04:48:20;;;;;;;30.83;9.27;;;15.30;98.10;;;;;;5006223;28;20041;-53
2021/07/17 04:50:46;;;;;;;29.33;9.77;;;15.40;98.10;;;;;;5008165;28;20038;-54
2021/07/17 04:53:12;;;;;;;27.30;9.80;;;15.40;98.10;;;;;;5009189;28;20053;-53
2021/07/17 04:55:39;;;;;;;26.15;10.05;;;15.40;98.10;;;;;;5005945;28;20080;-54
2021/07/17 04:58:05;;;;;;;29.73;9.43;;;15.40;98.10;;;;;;5010428;28;20057;-52
2021/07/17 05:00:31;;;;;;;30.40;10.15;;;15.50;98.10;;;;;;5012298;28;20045;-52
2021/07/17 05:02:57;;;;;;;34.15;10.30;;;15.50;98.20;;;;;;5009488;28;20069;-53
2021/07/17 05:05:24;;;;;;;26.13;9.45;;;15.60;98.30;;;;;;5010216;28;20120;-53
2021/07/17 05:07:51;;;;;;;36.80;10.65;;;15.60;98.20;;;;;;5010890;28;20045;-53
2021/07/17 05:10:22;;;;;;;23.70;9.02;;;15.60;98.20;;;;;;5005808;28;20668;-53
2021/07/17 05:12:50;;;;;;;30.90;8.53;;;15.70;98.40;;;;;;5011425;28;20089;-54
2021/07/17 05:15:17;;;;;;;36.78;9.38;;;15.70;98.30;;;;;;5010338;28;20041;-55
2021/07/17 05:17:43;;;;;;;29.60;9.07;;;15.70;98.30;;;;;;5010893;28;20046;-52
2021/07/17 05:20:11;;;;;;;28.63;9.40;;;15.70;98.30;;;;;;5011102;28;20083;-52
2021/07/17 05:22:37;;;;;;;28.85;9.07;;;15.80;98.40;;;;;;5011150;28;20038;-50
2021/07/17 05:25:04;;;;;;;24.90;9.45;;;15.80;98.40;;;;;;5012402;28;20030;-54
2021/07/17 05:27:30;;;;;;;26.23;9.50;;;15.90;98.50;;;;;;5013298;28;20132;-53
2021/07/17 05:29:56;;;;;;;29.70;9.35;;;15.90;98.40;;;;;;5013712;28;20339;-52
2021/07/17 05:32:22;;;;;;;32.38;9.10;;;16.00;98.50;;;;;;5000731;28;20109;-52
2021/07/17 05:34:48;;;;;;;25.58;9.27;;;16.00;98.50;;;;;;5026191;28;20041;-49
2021/07/17 05:37:13;;;;;;;23.70;9.07;;;16.00;98.50;;;;;;5016537;28;20042;-51
2021/07/17 05:39:44;;;;;;;21.15;8.88;;;16.10;98.60;;;;;;5016247;28;20046;-56
2021/07/17 05:42:10;;;;;;;30.27;9.13;;;16.00;98.60;;;;;;5018170;28;20034;-54
2021/07/17 05:44:36;;;;;;;34.95;9.77;;;16.10;98.60;;;;;;5016671;28;20138;-53
2021/07/17 05:47:03;;;;;;;25.27;9.45;;;16.20;98.70;;;;;;5000157;28;20562;-54
2021/07/17 05:49:28;;;;;;;31.75;9.68;;;16.20;98.70;;;;;;5016941;28;20085;-53
2021/07/17 05:51:54;;;;;;;34.97;10.23;;;16.30;98.70;;;;;;5016633;28;20041;-52
2021/07/17 05:54:20;;;;;;;28.92;9.18;;;16.30;98.80;;;;;;5012043;28;20053;-51
2021/07/17 05:56:45;;;;;;;23.50;9.50;;;16.40;98.80;;;;;;5012040;28;20034;-53
2021/07/17 05:59:11;;;;;;;26.88;8.25;;;16.50;98.90;;;;;;5017469;28;20087;-54
2021/07/17 06:01:37;;;;;;;30.88;9.88;;;16.50;98.80;;;;;;5016386;28;20491;-53
2021/07/17 06:04:04;;;;;;;29.77;9.02;;;16.60;98.80;;;;;;5017257;28;20034;-57
2021/07/17 06:06:30;;;;;;;28.77;9.02;;;16.60;98.80;;;;;;5016622;28;20042;-51
2021/07/17 06:08:56;;;;;;;31.17;8.52;;;16.70;98.80;;;;;;5015169;28;20037;-52
2021/07/17 06:11:21;;;;;;;24.02;8.45;;;16.70;98.70;;;;;;5012909;28;20045;-53
2021/07/17 06:13:47;;;;;;;24.98;8.02;;;16.80;98.70;;;;;;5017086;28;20053;-54
2021/07/17 06:16:13;;;;;;;21.80;8.55;;;16.80;98.50;;;;;;5021533;28;20090;-54
2021/07/17 06:18:40;;;;;;;27.73;8.63;;;16.90;98.50;;;;;;5015931;28;20514;-53
2021/07/17 06:21:07;;;;;;;27.08;8.05;;;16.90;98.70;;;;;;5021355;28;20095;-52
2021/07/17 06:23:33;;;;;;;25.63;7.40;;;17.00;98.50;;;;;;5009964;28;20473;-51
2021/07/17 06:25:59;;;;;;;19.27;7.28;;;17.10;98.50;;;;;;5017460;28;20178;-54
2021/07/17 06:28:25;;;;;;;24.70;7.70;;;17.20;98.60;;;;;;5017642;28;20544;-54
2021/07/17 06:30:51;;;;;;;17.10;7.10;;;17.20;98.20;;;;;;5015238;28;20029;-54
2021/07/17 06:33:16;;;;;;;25.45;7.47;;;17.30;98.20;;;;;;5026428;28;20036;-54
2021/07/17 06:35:42;;;;;;;23.70;6.78;;;17.30;98.10;;;;;;5019120;28;20121;-53
2021/07/17 06:38:07;;;;;;;19.73;6.90;;;17.40;98.00;;;;;;5016125;28;20045;-55
2021/07/17 06:40:34;;;;;;;26.40;7.35;;;17.40;98.00;;;;;;5011769;28;20095;-54
2021/07/17 06:42:59;;;;;;;19.52;6.53;;;17.50;97.90;;;;;;5020106;28;20444;-50
2021/07/17 06:45:25;;;;;;;19.88;6.60;;;17.60;97.80;;;;;;5014929;28;20421;-51
2021/07/17 06:47:51;;;;;;;16.45;5.82;;;17.70;97.80;;;;;;5014069;28;20601;-52
2021/07/17 06:50:18;;;;;;;21.02;6.18;;;17.70;97.80;;;;;;5012984;28;20034;-52
2021/07/17 06:52:44;;;;;;;17.17;6.10;;;17.80;97.70;;;;;;5004846;28;20042;-51
2021/07/17 06:55:11;;;;;;;19.42;5.38;;;17.90;97.60;;;;;;5013139;28;20042;-51
2021/07/17 06:57:38;;;;;;;20.05;5.50;;;18.00;97.70;;;;;;5013159;28;20060;-51
2021/07/17 07:00:06;;;;;;;18.10;5.55;;;18.00;97.40;;;;;;5012990;28;20048;-54
2021/07/17 07:02:32;;;;;;;17.63;4.80;;;18.10;97.20;;;;;;5028535;28;20564;-53
2021/07/17 07:04:57;;;;;;;11.95;4.22;;;18.20;97.00;;;;;;5012338;28;20038;-51
2021/07/17 07:07:23;;;;;;;15.82;4.50;;;18.30;96.70;;;;;;5011767;28;20499;-52
2021/07/17 07:09:49;;;;;;;14.90;4.70;;;18.40;96.50;;;;;;5018547;28;20069;-52
2021/07/17 07:12:14;;;;;;;19.17;4.75;;;18.50;96.20;;;;;;5025166;28;20486;-51
2021/07/17 07:14:40;;;;;;;12.82;3.95;;;18.60;96.00;;;;;;5010443;28;20148;-55
2021/07/17 07:17:05;;;;;;;10.32;3.72;;;18.70;95.90;;;;;;5019540;28;20510;-54
2021/07/17 07:19:31;;;;;;;12.25;3.80;;;18.90;92.90;;;;;;5023146;28;20038;-55
2021/07/17 07:21:57;;;;;;;18.15;3.97;;;19.10;92.40;;;;;;5017286;28;20037;-54
2021/07/17 07:24:22;;;;;;;12.00;3.78;;;19.20;92.50;;;;;;5007803;28;20054;-53
2021/07/17 07:26:48;;;;;;;13.02;3.63;;;19.30;92.00;;;;;;5012979;28;20042;-51
2021/07/17 07:29:14;;;;;;;11.73;3.30;;;19.40;92.20;;;;;;5013567;28;20084;-50
2021/07/17 07:31:39;;;;;;;13.02;3.45;;;19.50;91.50;;;;;;4986682;28;20048;-52
2021/07/17 07:34:05;;;;;;;13.18;3.40;;;19.60;91.20;;;;;;5013191;28;20418;-56
2021/07/17 07:36:31;;;;;;;16.70;3.58;;;19.80;90.50;;;;;;5013613;28;20040;-51
2021/07/17 07:38:57;;;;;;;14.30;3.33;;;19.80;90.20;;;;;;5013591;28;20048;-52
2021/07/17 07:41:24;;;;;;;12.73;3.60;;;19.80;90.10;;;;;;5010911;28;20092;-53
2021/07/17 07:43:49;;;;;;;8.85;2.95;;;19.90;90.00;;;;;;5012594;28;20045;-55
2021/07/17 07:46:15;;;;;;;11.38;3.20;;;20.00;88.80;;;;;;5002561;28;20042;-53
2021/07/17 07:48:42;;;;;;;8.95;3.00;;;20.10;89.20;;;;;;5001505;28;20518;-54
2021/07/17 07:51:12;;;;;;;12.23;3.53;;;20.20;90.30;;;;;;4993084;28;20050;-54
2021/07/17 07:53:38;;;;;;;12.63;3.22;;;20.30;89.10;;;;;;5000171;28;20242;-55
2021/07/17 07:56:05;;;;;;;10.40;3.40;;;20.40;90.10;;;;;;5000976;28;20101;-53
2021/07/17 07:58:31;;;;;;;11.73;3.20;;;20.50;90.00;;;;;;5002326;28;20050;-55
2021/07/17 08:00:57;;;;;;;9.15;2.70;;;20.50;85.60;;;;;;5001165;28;20049;-55
2021/07/17 08:03:23;;;;;;;8.20;3.00;;;20.70;84.90;;;;;;5003516;28;20068;-52
2021/07/17 08:05:49;;;;;;;9.98;2.60;;;20.70;84.90;;;;;;4998251;28;20488;-54
2021/07/17 08:08:14;;;;;;;7.97;2.65;;;20.70;84.70;;;;;;5001292;28;20073;-54
2021/07/17 08:10:40;;;;;;;7.40;2.33;;;20.70;84.90;;;;;;5001296;28;20366;-54
2021/07/17 08:13:06;;;;;;;10.45;2.72;;;20.70;84.20;;;;;;5001535;28;20044;-55
2021/07/17 08:15:32;;;;;;;6.68;2.58;;;20.90;84.20;;;;;;4999667;28;20041;-49
2021/07/17 08:17:58;;;;;;;8.15;2.40;;;20.90;83.60;;;;;;5000201;28;20076;-53
2021/07/17 08:20:24;;;;;;;7.00;2.38;;;20.90;80.50;;;;;;4998653;28;20080;-53
2021/07/17 08:22:50;;;;;;;12.52;2.63;;;21.10;79.80;;;;;;5002426;28;20167;-55
2021/07/17 08:25:16;;;;;;;8.80;2.85;;;21.00;81.70;;;;;;5000825;28;20709;-53
2021/07/17 08:27:42;;;;;;;10.50;2.50;;;21.10;80.80;;;;;;5001947;28;20092;-54
2021/07/17 08:30:10;;;;;;;9.00;2.70;;;21.10;82.90;;;;;;4984166;28;20045;-52
2021/07/17 08:32:37;;;;;;;8.80;2.78;;;21.30;79.50;;;;;;5008181;28;20057;-54
2021/07/17 08:35:05;;;;;;;10.50;2.83;;;21.30;81.00;;;;;;5011782;28;20456;-53
2021/07/17 08:37:34;;;;;;;9.88;2.85;;;21.30;81.30;;;;;;5010315;28;20046;-55
2021/07/17 08:40:03;;;;;;;8.95;2.42;;;21.20;82.60;;;;;;5011104;28;20041;-53
2021/07/17 08:42:34;;;;;;;7.85;2.70;;;21.30;83.20;;;;;;5011521;28;20046;-53
2021/07/17 08:45:05;;;;;;;10.63;2.72;;;21.50;80.20;;;;;;5012621;28;20124;-55
2021/07/17 08:47:37;;;;;;;9.02;2.15;;;21.70;79.10;;;;;;5013743;28;20133;-53
2021/07/17 08:50:05;;;;;;;6.47;2.10;;;21.70;77.40;;;;;;5011476;28;20053;-54
2021/07/17 08:52:32;;;;;;;9.95;2.30;;;21.80;77.00;;;;;;5023109;28;20037;-55
2021/07/17 08:55:04;;;;;;;10.18;2.40;;;21.80;77.10;;;;;;5001782;28;20568;-53
2021/07/17 08:57:35;;;;;;;5.60;2.28;;;21.90;77.80;;;;;;5011649;28;20072;-53
2021/07/17 09:00:08;;;;;;;8.68;2.22;;;21.80;79.00;;;;;;5003435;28;20112;-52
2021/07/17 09:02:38;;;;;;;7.32;2.05;;;21.80;80.50;;;;;;5018994;28;20072;-51
2021/07/17 09:05:07;;;;;;;8.60;2.33;;;21.90;79.00;;;;;;5016413;28;20038;-55
2021/07/17 09:07:32;;;;;;;4.25;2.03;;;22.00;76.80;;;;;;5011162;28;20073;-55
2021/07/17 09:09:58;;;;;;;9.25;2.72;;;22.10;77.10;;;;;;5011730;28;20065;-55
2021/07/17 09:12:26;;;;;;;6.20;2.50;;;22.10;78.00;;;;;;5009202;28;20050;-54
2021/07/17 09:14:52;;;;;;;4.88;1.92;;;22.30;77.80;;;;;;5006308;28;20487;-55
2021/07/17 09:17:28;;;;;;;6.30;2.47;;;22.30;78.60;;;;;;5011247;28;20034;-55
2021/07/17 09:20:00;;;;;;;7.40;2.58;;;22.30;79.40;;;;;;5007813;28;20069;-54
2021/07/17 09:22:35;;;;;;;8.52;2.40;;;22.20;78.80;;;;;;5024708;28;20033;-55
2021/07/17 09:25:11;;;;;;;5.28;1.88;;;22.40;74.90;;;;;;5014470;28;20066;-54
2021/07/17 09:27:36;;;;;;;8.70;2.05;;;22.30;73.30;;;;;;5018755;28;20696;-53
2021/07/17 09:30:04;;;;;;;7.88;1.75;;;22.40;74.40;;;;;;5016368;28;20040;-53
2021/07/17 09:32:30;;;;;;;6.03;1.90;;;22.40;71.30;;;;;;5013364;28;20063;-55
2021/07/17 09:35:10;;;;;;;4.20;1.83;;;22.30;73.90;;;;;;5005778;28;20527;-53
2021/07/17 09:37:35;;;;;;;5.88;1.90;;;22.20;74.90;;;;;;5009962;28;20566;-53
2021/07/17 09:40:01;;;;;;;6.60;2.15;;;22.20;75.00;;;;;;5012979;28;20088;-52
2021/07/17 09:42:27;;;;;;;5.13;1.73;;;22.40;71.30;;;;;;5016763;28;20069;-50
2021/07/17 09:44:55;;;;;;;4.90;1.90;;;22.40;74.30;;;;;;5014374;28;20058;-52
2021/07/17 09:47:26;;;;;;;6.70;2.00;;;22.40;73.90;;;;;;5013784;28;20430;-56
2021/07/17 09:50:15;;;;;;;8.52;2.05;;;22.40;73.90;;;;;;5014644;28;20041;-55
2021/07/17 09:52:43;;;;;;;6.10;2.22;;;22.40;75.20;;;;;;5010822;28;20037;-55
2021/07/17 09:55:13;;;;;;;7.60;2.10;;;22.50;72.00;;;;;;5013416;28;20057;-56
2021/07/17 09:57:39;;;;;;;5.60;2.10;;;22.60;74.00;;;;;;5011674;28;20042;-55
2021/07/17 10:00:06;;;;;;;9.05;2.30;;;22.60;73.90;;;;;;5013810;28;20113;-55
2021/07/17 10:02:35;;;;;;;4.65;2.00;;;22.70;74.80;;;;;;5012238;28;20037;-56
2021/07/17 10:05:02;;;;;;;7.05;2.00;;;22.80;74.20;;;;;;5014246;28;20057;-56
2021/07/17 10:07:28;;;;;;;5.68;2.17;;;22.80;73.80;;;;;;5009608;28;20128;-56
2021/07/17 10:09:53;;;;;;;6.30;2.10;;;22.80;71.20;;;;;;5004358;28;20061;-56
2021/07/17 10:12:34;;;;;;;5.60;1.95;;;22.80;72.10;;;;;;5013137;28;20045;-54
2021/07/17 10:15:01;;;;;;;5.95;2.20;;;22.90;73.50;;;;;;5003985;28;20391;-56
2021/07/17 10:17:35;;;;;;;4.68;2.10;;;23.00;73.70;;;;;;5018286;28;20057;-55
2021/07/17 10:20:04;;;;;;;10.57;3.10;;;23.10;71.40;;;;;;5002650;28;20079;-55
2021/07/17 10:22:29;;;;;;;4.28;1.92;;;23.10;70.70;;;;;;5016010;28;20053;-56
2021/07/17 10:24:56;;;;;;;4.65;1.65;;;23.10;70.40;;;;;;5014197;28;20040;-54
2021/07/17 10:27:23;;;;;;;6.68;1.90;;;23.10;70.90;;;;;;5014495;28;20045;-56
2021/07/17 10:29:50;;;;;;;7.40;2.03;;;23.20;69.50;;;;;;5015131;28;20045;-54
2021/07/17 10:32:16;;;;;;;6.70;2.22;;;23.20;69.20;;;;;;5014020;28;20045;-54
2021/07/17 10:34:44;;;;;;;4.68;1.70;;;23.30;67.10;;;;;;5011816;28;20042;-53
2021/07/17 10:37:17;;;;;;;5.53;2.00;;;23.30;68.10;;;;;;5013813;28;20076;-52
2021/07/17 10:39:48;;;;;;;4.18;1.73;;;23.30;69.10;;;;;;5007618;28;20038;-54
2021/07/17 10:42:21;;;;;;;4.72;1.80;;;23.20;69.30;;;;;;5011457;28;20403;-55
2021/07/17 10:44:49;;;;;;;5.63;1.80;;;23.20;69.80;;;;;;5020436;28;20048;-55
2021/07/17 10:47:17;;;;;;;8.90;1.80;;;23.20;70.30;;;;;;5013322;28;20046;-56
2021/07/17 10:49:44;;;;;;;3.75;1.77;;;23.30;71.20;;;;;;5005318;28;20088;-55
2021/07/17 10:52:11;;;;;;;6.05;1.63;;;23.40;70.50;;;;;;4993656;28;20072;-51
2021/07/17 10:54:37;;;;;;;7.13;2.00;;;23.50;69.10;;;;;;5013192;28;20056;-53
2021/07/17 10:57:04;;;;;;;6.22;1.67;;;23.50;67.60;;;;;;5012781;28;20070;-54
2021/07/17 10:59:30;;;;;;;5.05;1.75;;;23.70;66.80;;;;;;5012234;28;20054;-54
2021/07/17 11:01:56;;;;;;;3.97;1.58;;;23.60;67.20;;;;;;5013022;28;20536;-55
2021/07/17 11:04:44;;;;;;;4.70;1.80;;;23.60;68.20;;;;;;5010697;28;20124;-55
2021/07/17 11:07:16;;;;;;;3.30;1.50;;;23.60;65.00;;;;;;5012369;28;20052;-53
2021/07/17 11:09:49;;;;;;;;;;;23.60;68.00;;;;;;5014469;28;20042;-50
2021/07/17 11:12:43;;;;;;;8.35;1.98;;;23.70;67.70;;;;;;5011975;28;19918;-55
2021/07/17 11:15:12;;;;;;;5.32;1.70;;;23.70;65.90;;;;;;5013523;28;20041;-52
2021/07/17 11:17:44;;;;;;;9.65;1.98;;;23.70;65.50;;;;;;5011175;28;21329;-56
2021/07/17 11:20:17;;;;;;;6.53;1.75;;;23.70;66.80;;;;;;5014675;28;20041;-52
2021/07/17 11:22:45;;;;;;;4.88;1.80;;;23.80;67.40;;;;;;5012077;28;20088;-53
2021/07/17 11:25:16;;;;;;;4.13;1.70;;;23.70;65.30;;;;;;5003650;28;20100;-53
2021/07/17 11:27:42;;;;;;;5.07;1.60;;;23.70;65.70;;;;;;5011575;28;20045;-51
2021/07/17 11:30:16;;;;;;;3.63;1.55;;;23.90;63.30;;;;;;5012311;28;20483;-56
2021/07/17 11:33:05;;;;;;;4.85;1.45;;;23.90;59.40;;;;;;5012657;28;20033;-55
2021/07/17 11:35:39;;;;;;;4.18;1.40;;;24.00;61.10;;;;;;5008174;28;20069;-55
2021/07/17 11:38:06;;;;;;;3.85;1.40;;;24.00;60.70;;;;;;5012393;28;20034;-55
2021/07/17 11:40:33;;;;;;;4.32;1.70;;;24.00;60.40;;;;;;5008425;28;20547;-50
2021/07/17 11:43:13;;;;;;;3.33;1.20;;;23.90;61.30;;;;;;5017874;28;20038;-54
2021/07/17 11:45:40;;;;;;;3.70;1.80;;;24.00;59.60;;;;;;4983290;28;20077;-49
2021/07/17 11:48:10;;;;;;;4.43;1.40;;;24.20;59.70;;;;;;5016654;28;20399;-50
2021/07/17 11:50:37;;;;;;;4.45;1.83;;;24.10;60.80;;;;;;5009628;28;20093;-52
2021/07/17 11:53:16;;;;;;;4.65;1.88;;;24.00;59.60;;;;;;5015562;28;20046;-52
2021/07/17 11:55:42;;;;;;;4.55;1.60;;;23.90;61.70;;;;;;5012066;28;20064;-50
2021/07/17 11:58:16;;;;;;;3.80;1.33;;;24.00;62.80;;;;;;5007793;28;20045;-52
2021/07/17 12:00:41;;;;;;;2.92;1.50;;;24.20;60.00;;;;;;5017795;28;20038;-54
2021/07/17 12:03:07;;;;;;;5.10;1.50;;;24.20;60.40;;;;;;5003331;28;20038;-53
2021/07/17 12:05:34;;;;;;;2.67;1.40;;;24.20;60.70;;;;;;5007998;28;20056;-53
2021/07/17 12:08:00;;;;;;;3.38;1.08;;;24.20;60.90;;;;;;5012062;28;20077;-53
2021/07/17 12:10:28;;;;;;;4.15;1.70;;;24.20;58.70;;;;;;5011666;28;20073;-53
2021/07/17 12:12:56;;;;;;;4.15;1.50;;;24.30;58.70;;;;;;5009677;28;20450;-53
2021/07/17 12:15:23;;;;;;;3.20;1.20;;;24.30;59.00;;;;;;5004189;28;20049;-51
2021/07/17 12:17:53;;;;;;;2.60;1.25;;;24.30;57.40;;;;;;5011279;28;20383;-54
2021/07/17 12:20:23;;;;;;;3.47;1.40;;;24.30;58.90;;;;;;5022792;28;20396;-49
2021/07/17 12:23:01;;;;;;;3.30;1.38;;;24.30;59.50;;;;;;5027583;28;20037;-51
2021/07/17 12:25:40;;;;;;;3.30;1.30;;;24.40;59.10;;;;;;5018552;28;20629;-50
2021/07/17 12:28:06;;;;;;;4.07;1.75;;;24.50;56.80;;;;;;5016400;28;20046;-51
2021/07/17 12:30:35;;;;;;;2.50;1.15;;;24.40;58.60;;;;;;5015699;28;20155;-50
2021/07/17 12:33:19;;;;;;;3.60;1.60;;;24.40;59.60;;;;;;5013922;28;20117;-51
2021/07/17 12:35:47;;;;;;;4.25;1.50;;;24.40;60.80;;;;;;5012842;28;20049;-55
2021/07/17 12:38:18;;;;;;;2.60;1.40;;;24.40;61.40;;;;;;5008476;28;20096;-55
2021/07/17 12:41:23;;;;;;;4.43;1.45;;;24.60;62.60;;;;;;5027756;28;20034;-56